Time;durP1;ratioP1;P1;durP2;ratioP2;P2;SDS_P1;SDS_P2;PMS_P1;PMS_P2;Temp;Humidity;BMP_temperature;BMP_pressure;BME280_temperature;BME280_humidity;BME280_pressure;Samples;Min_cycle;Max_cycle;Signal;HPM_P1;HPM_P2
2022/05/30 00:02:21;;;;;;;;;;;;;;;13.34;57.93;99946.75;5092102;28;19928;-51
2022/05/30 00:04:48;;;;;;;;;;;;;;;13.40;57.42;99937.78;5104384;28;19935;-50
2022/05/30 00:07:15;;;;;;;;;;;;;;;13.43;57.79;99949.44;5112375;28;19924;-52
2022/05/30 00:09:43;;;;;;;;;;;;;;;13.43;57.80;99941.84;5115798;28;19930;-51
2022/05/30 00:12:12;;;;;;;;;;;;;;;13.45;58.02;99945.13;5116487;28;19924;-50
2022/05/30 00:14:39;;;;;;;;;;;;;;;13.51;57.49;99940.13;5116153;28;19927;-50
2022/05/30 00:17:07;;;;;;;;;;;;;;;13.50;57.46;99944.91;5113019;28;20368;-51
2022/05/30 00:19:38;;;;;;;;;;;;;;;13.50;57.18;99938.47;5075216;28;19924;-50
2022/05/30 00:22:06;;;;;;;;;;;;;;;13.51;56.94;99940.13;5075464;28;19924;-50
2022/05/30 00:24:34;;;;;;;;;;;;;;;13.50;57.30;99939.31;5078009;28;19948;-53
2022/05/30 00:27:06;;;;;;;;;;;;;;;13.42;57.67;99939.41;5095895;28;19931;-53
2022/05/30 00:29:33;;;;;;;;;;;;;;;13.39;57.85;99933.31;5095647;28;19924;-51
2022/05/30 00:32:00;;;;;;;;;;;;;;;13.36;57.68;99938.81;5095606;28;19932;-51
2022/05/30 00:34:30;;;;;;;;;;;;;;;13.35;57.87;99934.38;5115988;28;19924;-52
2022/05/30 00:36:58;;;;;;;;;;;;;;;13.38;58.00;99928.09;5116229;28;19923;-53
2022/05/30 00:39:26;;;;;;;;;;;;;;;13.35;58.00;99937.97;5115396;28;19931;-51
2022/05/30 00:41:53;;;;;;;;;;;;;;;13.36;57.94;99934.03;5115804;28;19927;-51
2022/05/30 00:44:21;;;;;;;;;;;;;;;13.39;58.09;99929.72;5115553;28;19923;-50
2022/05/30 00:46:48;;;;;;;;;;;;;;;13.40;57.99;99922.97;5114005;28;20388;-50
2022/05/30 00:49:15;;;;;;;;;;;;;;;13.40;57.91;99928.56;5115531;28;19930;-50
2022/05/30 00:51:45;;;;;;;;;;;;;;;13.40;57.73;99929.38;5116056;28;20272;-52
2022/05/30 00:54:14;;;;;;;;;;;;;;;13.37;58.04;99918.06;5114804;28;20253;-51
2022/05/30 00:56:42;;;;;;;;;;;;;;;13.34;58.28;99918.78;5100669;28;19931;-51
2022/05/30 00:59:10;;;;;;;;;;;;;;;13.34;58.22;99925.19;5095195;28;19924;-51
2022/05/30 01:01:38;;;;;;;;;;;;;;;13.34;58.12;99918.78;5097075;28;19923;-50
2022/05/30 01:06:52;;;;;;;;;;;;;;;13.34;58.33;99925.19;5119990;28;19924;-50
2022/05/30 01:09:22;;;;;;;;;;;;;;;13.34;58.26;99925.19;5115199;28;19934;-53
2022/05/30 01:11:52;;;;;;;;;;;;;;;13.30;58.20;99927.03;5115508;28;19935;-51
2022/05/30 01:14:19;;;;;;;;;;;;;;;13.26;58.70;99922.44;5115325;28;19923;-53
2022/05/30 01:16:48;;;;;;;;;;;;;;;13.27;58.63;99921.28;5109865;28;19931;-50
2022/05/30 01:19:23;;;;;;;;;;;;;;;13.23;58.77;99920.31;5114987;28;19946;-53
2022/05/30 01:21:58;;;;;;;;;;;;;;;13.24;58.32;99919.19;5115314;28;19923;-51
2022/05/30 01:24:32;;;;;;;;;;;;;;;13.21;58.29;99915.09;5115165;28;19934;-50
2022/05/30 01:27:12;;;;;;;;;;;;;;;13.21;58.78;99912.31;5129717;27;19950;-52
2022/05/30 01:29:43;;;;;;;;;;;;;;;13.23;58.65;99909.97;5115092;28;19935;-53
2022/05/30 01:32:11;;;;;;;;;;;;;;;13.17;58.25;99909.38;5112880;27;19924;-51
2022/05/30 01:34:38;;;;;;;;;;;;;;;13.15;58.34;99910.88;5115066;28;19977;-52
2022/05/30 01:37:05;;;;;;;;;;;;;;;13.16;57.93;99901.31;5115146;28;19924;-51
2022/05/30 01:39:32;;;;;;;;;;;;;;;13.10;59.20;99902.69;5114942;28;19923;-51
2022/05/30 01:41:59;;;;;;;;;;;;;;;13.07;59.70;99900.63;5114704;28;20371;-50
2022/05/30 01:44:27;;;;;;;;;;;;;;;13.02;60.78;99901.66;5114427;28;19928;-54
2022/05/30 01:46:55;;;;;;;;;;;;;;;13.04;60.93;99892.91;5120736;27;19931;-50
2022/05/30 01:49:22;;;;;;;;;;;;;;;13.01;61.00;99888.81;5133715;27;19923;-50
2022/05/30 01:51:53;;;;;;;;;;;;;;;13.06;60.44;99890.56;5135383;27;19945;-50
2022/05/30 01:54:20;;;;;;;;;;;;;;;12.97;60.75;99885.06;5131077;27;19923;-50
2022/05/30 01:56:48;;;;;;;;;;;;;;;12.85;61.27;99885.03;5118730;27;19930;-51
2022/05/30 01:59:16;;;;;;;;;;;;;;;12.73;61.94;99897.81;5113824;28;19931;-51
2022/05/30 02:01:45;;;;;;;;;;;;;;;12.75;61.88;99897.47;5114563;28;19924;-51
2022/05/30 02:04:14;;;;;;;;;;;;;;;12.76;61.87;99893.50;5113770;28;19924;-50
2022/05/30 02:06:41;;;;;;;;;;;;;;;12.76;62.05;99894.31;5114507;28;19923;-51
2022/05/30 02:09:08;;;;;;;;;;;;;;;12.70;62.91;99894.88;5128325;27;19923;-51
2022/05/30 02:11:35;;;;;;;;;;;;;;;12.71;62.88;99891.75;5133249;27;19924;-51
2022/05/30 02:14:02;;;;;;;;;;;;;;;12.74;62.28;99882.66;5134234;27;19947;-53
2022/05/30 02:19:17;;;;;;;;;;;;;;;12.71;62.58;99886.16;5139660;27;19935;-53
2022/05/30 02:21:44;;;;;;;;;;;;;;;12.71;62.42;99885.34;5134269;27;19923;-51
2022/05/30 02:24:11;;;;;;;;;;;;;;;12.72;63.28;99886.97;5131665;27;20275;-50
2022/05/30 02:26:44;;;;;;;;;;;;;;;12.72;63.23;99886.97;5127340;27;20311;-51
2022/05/30 02:29:11;;;;;;;;;;;;;;;12.70;63.09;99886.50;5113542;28;19924;-52
2022/05/30 02:31:41;;;;;;;;;;;;;;;12.73;62.53;99889.44;5112955;28;20376;-51
2022/05/30 02:36:54;;;;;;;;;;;;;;;12.70;62.38;99887.31;5113969;28;19928;-50
2022/05/30 02:39:22;;;;;;;;;;;;;;;12.73;62.21;99888.63;5113232;28;19931;-51
2022/05/30 02:41:50;;;;;;;;;;;;;;;12.76;62.23;99890.72;5121362;27;20391;-50
2022/05/30 02:44:19;;;;;;;;;;;;;;;12.84;62.00;99889.81;5134031;27;19924;-52
2022/05/30 02:46:46;;;;;;;;;;;;;;;12.74;63.51;99884.66;5134330;27;20431;-52
2022/05/30 02:49:13;;;;;;;;;;;;;;;12.70;64.76;99895.69;5134114;27;19930;-52
2022/05/30 02:51:40;;;;;;;;;;;;;;;12.70;64.27;99886.50;5134450;27;19931;-50
2022/05/30 02:54:11;;;;;;;;;;;;;;;12.68;63.88;99891.63;5116838;27;19999;-50
2022/05/30 02:56:48;;;;;;;;;;;;;;;12.68;63.99;99891.63;5111249;28;19931;-50
2022/05/30 02:59:15;;;;;;;;;;;;;;;12.72;63.91;99893.38;5113299;28;19931;-51
2022/05/30 03:01:42;;;;;;;;;;;;;;;12.66;63.58;99888.34;5113382;28;19924;-50
2022/05/30 03:04:09;;;;;;;;;;;;;;;12.60;64.69;99893.34;5113325;28;19924;-51
2022/05/30 03:06:36;;;;;;;;;;;;;;;12.64;63.72;99891.50;5113202;28;20287;-50
2022/05/30 03:09:03;;;;;;;;;;;;;;;12.66;63.74;99891.13;5113493;28;19930;-50
2022/05/30 03:11:31;;;;;;;;;;;;;;;12.69;63.44;99891.28;5111120;28;20419;-51
2022/05/30 03:14:01;;;;;;;;;;;;;;;12.69;62.92;99891.28;5113129;28;20418;-50
2022/05/30 03:16:28;;;;;;;;;;;;;;;12.71;62.36;99896.53;5112584;28;19946;-52
2022/05/30 03:18:55;;;;;;;;;;;;;;;12.68;62.10;99898.03;5112824;28;20288;-50
2022/05/30 03:21:22;;;;;;;;;;;;;;;12.69;63.16;99899.66;5113069;28;20395;-50
2022/05/30 03:23:50;;;;;;;;;;;;;;;12.72;63.07;99896.16;5112437;28;20300;-50
2022/05/30 03:26:19;;;;;;;;;;;;;;;12.73;62.90;99897.00;5109694;28;20296;-52
2022/05/30 03:28:51;;;;;;;;;;;;;;;12.72;62.87;99898.97;5092319;28;19924;-50
2022/05/30 03:31:18;;;;;;;;;;;;;;;12.75;63.20;99894.69;5092457;28;19931;-51
2022/05/30 03:33:45;;;;;;;;;;;;;;;12.72;63.42;99903.75;5092718;28;19924;-51
2022/05/30 03:36:13;;;;;;;;;;;;;;;12.75;63.32;99909.47;5092804;28;20308;-51
2022/05/30 03:38:40;;;;;;;;;;;;;;;12.70;64.11;99903.25;5092875;28;19932;-51
2022/05/30 03:41:07;;;;;;;;;;;;;;;12.70;64.42;99906.06;5083058;28;19924;-50
2022/05/30 03:43:34;;;;;;;;;;;;;;;12.73;63.83;99910.97;5099133;28;19928;-52
2022/05/30 03:46:02;;;;;;;;;;;;;;;12.72;64.20;99906.53;5117083;28;19935;-52
2022/05/30 03:48:29;;;;;;;;;;;;;;;12.71;63.84;99910.50;5116815;28;19946;-51
2022/05/30 03:50:57;;;;;;;;;;;;;;;12.70;63.86;99914.44;5116906;28;19924;-50
2022/05/30 03:53:24;;;;;;;;;;;;;;;12.73;63.98;99910.97;5116093;28;19931;-50
2022/05/30 03:55:51;;;;;;;;;;;;;;;12.78;63.99;99917.16;5116873;28;19927;-52
2022/05/30 03:58:18;;;;;;;;;;;;;;;12.80;63.78;99914.84;5114351;28;19924;-50
2022/05/30 04:00:45;;;;;;;;;;;;;;;12.86;64.29;99917.44;5117121;28;19931;-50
2022/05/30 04:03:14;;;;;;;;;;;;;;;12.93;64.11;99904.50;5116609;28;19931;-50
2022/05/30 04:05:41;;;;;;;;;;;;;;;12.92;64.27;99905.69;5116685;28;19951;-51
2022/05/30 04:08:08;;;;;;;;;;;;;;;12.90;63.62;99910.81;5116512;28;20400;-52
2022/05/30 04:10:35;;;;;;;;;;;;;;;12.96;63.77;99908.63;5116550;28;19927;-51
2022/05/30 04:13:03;;;;;;;;;;;;;;;12.98;63.01;99907.09;5114167;28;19924;-50
2022/05/30 04:15:30;;;;;;;;;;;;;;;13.04;62.90;99913.31;5116417;28;19928;-50
2022/05/30 04:17:57;;;;;;;;;;;;;;;13.04;62.42;99906.88;5116250;28;20299;-50
2022/05/30 04:20:27;;;;;;;;;;;;;;;13.06;61.62;99908.19;5098373;28;19930;-50
2022/05/30 04:22:54;;;;;;;;;;;;;;;13.07;60.36;99903.41;5090319;28;19939;-51
2022/05/30 04:25:21;;;;;;;;;;;;;;;13.10;59.95;99911.09;5087811;28;20291;-52
2022/05/30 04:27:48;;;;;;;;;;;;;;;13.13;59.08;99908.44;5095494;28;20380;-53
2022/05/30 04:30:16;;;;;;;;;;;;;;;13.15;58.38;99920.09;5084330;28;19924;-50
2022/05/30 04:32:43;;;;;;;;;;;;;;;13.11;58.53;99909.94;5093562;28;19924;-51
2022/05/30 04:35:11;;;;;;;;;;;;;;;13.15;58.46;99916.47;5092843;28;19935;-50
2022/05/30 04:37:42;;;;;;;;;;;;;;;13.19;58.24;99912.66;5101861;28;20293;-50
2022/05/30 04:40:12;;;;;;;;;;;;;;;13.13;58.54;99916.81;5075260;28;19925;-50
2022/05/30 04:42:39;;;;;;;;;;;;;;;13.09;59.18;99920.66;5074451;28;19932;-50
2022/05/30 04:45:07;;;;;;;;;;;;;;;13.14;59.48;99914.84;5076447;28;19924;-50
2022/05/30 04:47:35;;;;;;;;;;;;;;;13.12;59.42;99911.56;5086049;28;19947;-50
2022/05/30 04:50:03;;;;;;;;;;;;;;;13.15;60.02;99920.09;5078318;28;19924;-53
2022/05/30 04:52:30;;;;;;;;;;;;;;;13.19;60.58;99928.63;5092636;28;19940;-51
2022/05/30 04:54:58;;;;;;;;;;;;;;;13.25;60.00;99924.44;5074245;28;19932;-52
2022/05/30 04:57:25;;;;;;;;;;;;;;;13.21;59.84;99926.28;5074646;28;19925;-52
2022/05/30 04:59:52;;;;;;;;;;;;;;;13.23;59.47;99929.56;5075123;28;20265;-50
2022/05/30 05:02:19;;;;;;;;;;;;;;;13.29;59.41;99933.81;5074712;28;19925;-51
2022/05/30 05:04:46;;;;;;;;;;;;;;;13.30;59.10;99924.22;5074732;28;19932;-50
2022/05/30 05:07:13;;;;;;;;;;;;;;;13.33;59.39;99939.50;5112733;27;20283;-52
2022/05/30 05:09:45;;;;;;;;;;;;;;;13.34;59.39;99939.16;5136002;27;20278;-50
2022/05/30 05:12:14;;;;;;;;;;;;;;;13.43;59.58;99938.25;5136028;27;20416;-51
2022/05/30 05:14:41;;;;;;;;;;;;;;;13.56;59.16;99934.28;5135447;27;19923;-52
2022/05/30 05:17:08;;;;;;;;;;;;;;;13.61;58.39;99922.88;5122883;27;20295;-50
2022/05/30 05:19:37;;;;;;;;;;;;;;;13.68;58.17;99933.50;5110439;27;19930;-50
2022/05/30 05:22:05;;;;;;;;;;;;;;;13.71;57.55;99932.78;5109250;27;19924;-51
2022/05/30 05:24:33;;;;;;;;;;;;;;;13.87;56.96;99935.72;5100996;28;19935;-51
2022/05/30 05:27:00;;;;;;;;;;;;;;;13.92;56.75;99932.69;5098378;28;20319;-50
2022/05/30 05:29:28;;;;;;;;;;;;;;;14.02;56.54;99937.81;5105953;27;19924;-51
2022/05/30 05:31:55;;;;;;;;;;;;;;;13.78;57.40;99935.84;5101526;27;20391;-47
2022/05/30 05:34:22;;;;;;;;;;;;;;;13.98;57.30;99939.69;5107995;28;19928;-47
2022/05/30 05:36:50;;;;;;;;;;;;;;;13.88;55.24;99948.53;5104733;27;19923;-48
2022/05/30 05:39:17;;;;;;;;;;;;;;;14.15;55.11;99945.06;5111636;28;20394;-53
2022/05/30 05:41:46;;;;;;;;;;;;;;;14.41;54.45;99947.47;5105421;28;19931;-52
2022/05/30 05:44:13;;;;;;;;;;;;;;;14.61;53.55;99945.69;5114386;28;19928;-53
2022/05/30 05:46:42;;;;;;;;;;;;;;;14.66;53.14;99950.25;5123793;27;19923;-55
2022/05/30 05:49:10;;;;;;;;;;;;;;;14.39;53.17;99940.56;5134929;27;19930;-52
2022/05/30 05:51:38;;;;;;;;;;;;;;;14.57;52.93;99941.13;5134827;27;20315;-56
2022/05/30 05:54:05;;;;;;;;;;;;;;;14.51;52.65;99948.13;5118195;27;19923;-52
2022/05/30 05:56:32;;;;;;;;;;;;;;;14.71;52.51;99943.56;5113838;28;19946;-55
2022/05/30 05:59:00;;;;;;;;;;;;;;;14.90;52.29;99949.31;5114005;28;19930;-56
2022/05/30 06:01:28;;;;;;;;;;;;;;;15.01;51.17;99944.00;5113644;28;19924;-56
2022/05/30 06:03:58;;;;;;;;;;;;;;;15.06;51.15;99951.38;5113917;28;20360;-55
2022/05/30 06:06:26;;;;;;;;;;;;;;;15.15;51.47;99952.03;5114176;28;19930;-55
2022/05/30 06:08:54;;;;;;;;;;;;;;;15.35;51.33;99952.97;5108119;28;20307;-53
2022/05/30 06:11:21;;;;;;;;;;;;;;;15.54;50.79;99955.06;5113559;28;19934;-53
2022/05/30 06:13:48;;;;;;;;;;;;;;;15.63;50.04;99953.72;5113576;28;19924;-55
2022/05/30 06:16:17;;;;;;;;;;;;;;;15.76;49.63;99962.91;5113570;28;20276;-56
2022/05/30 06:18:44;;;;;;;;;;;;;;;15.87;49.68;99960.38;5103565;28;19931;-52
2022/05/30 06:21:12;;;;;;;;;;;;;;;15.97;49.47;99961.81;5101021;28;19927;-53
2022/05/30 06:23:40;;;;;;;;;;;;;;;16.11;49.47;99962.16;5081078;28;19932;-54
2022/05/30 06:26:07;;;;;;;;;;;;;;;16.25;49.00;99961.69;5078188;28;19931;-55
2022/05/30 06:28:35;;;;;;;;;;;;;;;16.35;48.72;99965.94;5090887;28;19924;-55
2022/05/30 06:31:06;;;;;;;;;;;;;;;16.39;48.25;99966.84;5092683;28;20054;-53
2022/05/30 06:33:33;;;;;;;;;;;;;;;16.32;48.36;99967.47;5082377;28;19936;-54
2022/05/30 06:36:00;;;;;;;;;;;;;;;16.42;48.07;99966.09;5092643;28;19936;-54
2022/05/30 06:38:28;;;;;;;;;;;;;;;16.43;47.69;99971.34;5093089;28;20398;-55
2022/05/30 06:40:55;;;;;;;;;;;;;;;16.36;47.47;99965.56;5093027;28;19932;-52
2022/05/30 06:43:25;;;;;;;;;;;;;;;16.35;47.13;99968.75;5091038;28;19928;-56
2022/05/30 06:45:52;;;;;;;;;;;;;;;16.37;47.11;99972.81;5106021;28;19928;-55
2022/05/30 06:48:19;;;;;;;;;;;;;;;16.43;47.53;99968.53;5113082;28;19924;-52
2022/05/30 06:50:47;;;;;;;;;;;;;;;16.33;47.78;99968.28;5094336;28;19927;-56
2022/05/30 06:53:14;;;;;;;;;;;;;;;16.24;47.98;99972.13;5112378;28;20233;-56
2022/05/30 06:55:42;;;;;;;;;;;;;;;16.22;48.26;99977.28;5112637;28;19931;-55
2022/05/30 06:58:13;;;;;;;;;;;;;;;16.28;47.65;99977.03;5112923;28;19930;-53
2022/05/30 07:00:41;;;;;;;;;;;;;;;16.21;47.74;99977.63;5098494;28;19923;-53
2022/05/30 07:03:08;;;;;;;;;;;;;;;16.19;46.87;99974.38;5096428;28;19935;-55
2022/05/30 07:05:35;;;;;;;;;;;;;;;16.11;47.40;99979.03;5097579;28;19936;-54
2022/05/30 07:08:02;;;;;;;;;;;;;;;16.01;47.31;99990.81;5104730;28;20406;-56
2022/05/30 07:10:30;;;;;;;;;;;;;;;16.14;47.38;99989.53;5100973;28;19924;-55
2022/05/30 07:12:59;;;;;;;;;;;;;;;16.22;47.12;99980.09;5098344;28;19935;-54
2022/05/30 07:15:26;;;;;;;;;;;;;;;16.41;46.63;99984.16;5105061;28;19951;-54
2022/05/30 07:17:53;;;;;;;;;;;;;;;16.48;46.47;99987.09;5104466;28;19928;-56
2022/05/30 07:20:21;;;;;;;;;;;;;;;16.78;45.83;99995.03;5091774;28;19990;-56
2022/05/30 07:22:49;;;;;;;;;;;;;;;17.03;45.10;99982.34;5090567;28;19931;-52
2022/05/30 07:25:16;;;;;;;;;;;;;;;17.33;44.67;99986.53;5074426;28;20375;-55
2022/05/30 07:27:43;;;;;;;;;;;;;;;17.63;44.46;99986.69;5089895;28;19927;-54
2022/05/30 07:30:12;;;;;;;;;;;;;;;17.81;43.31;99985.03;5108196;28;19932;-54
2022/05/30 07:32:39;;;;;;;;;;;;;;;17.91;43.25;99979.97;5078268;28;19925;-53
2022/05/30 07:35:06;;;;;;;;;;;;;;;18.15;42.23;99988.03;5088178;28;20398;-56
2022/05/30 07:37:33;;;;;;;;;;;;;;;18.30;42.29;99982.63;5098604;28;19935;-53
2022/05/30 07:40:00;;;;;;;;;;;;;;;18.37;41.88;99988.38;5090336;28;19940;-53
2022/05/30 07:42:27;;;;;;;;;;;;;;;18.36;41.51;99992.41;5095700;28;19947;-56
2022/05/30 07:44:54;;;;;;;;;;;;;;;18.29;40.95;99986.63;5071481;28;19932;-56
2022/05/30 07:47:23;;;;;;;;;;;;;;;18.23;40.49;99984.16;5104694;28;19931;-55
2022/05/30 07:49:50;;;;;;;;;;;;;;;18.19;39.91;99988.91;5081024;28;19924;-52
2022/05/30 07:52:17;;;;;;;;;;;;;;;18.38;40.50;99982.34;5094862;28;19947;-56
2022/05/30 07:54:44;;;;;;;;;;;;;;;18.70;39.99;99984.03;5070138;28;19932;-56
2022/05/30 07:57:11;;;;;;;;;;;;;;;18.76;39.75;99983.31;5096566;28;19924;-54
2022/05/30 07:59:39;;;;;;;;;;;;;;;18.93;39.42;99990.41;5083670;28;19925;-56
2022/05/30 08:02:06;;;;;;;;;;;;;;;18.95;38.97;99984.38;5088306;28;20011;-55
2022/05/30 08:04:35;;;;;;;;;;;;;;;19.16;38.93;99978.19;5070761;28;20281;-55
2022/05/30 08:07:04;;;;;;;;;;;;;;;19.40;38.37;99976.84;5087556;28;20415;-56
2022/05/30 08:09:31;;;;;;;;;;;;;;;19.46;37.26;99981.78;5087610;28;19928;-55
2022/05/30 08:11:59;;;;;;;;;;;;;;;19.58;36.38;99991.19;5093825;28;19931;-54
2022/05/30 08:14:25;;;;;;;;;;;;;;;19.72;36.27;99982.88;5074065;28;20384;-56
2022/05/30 08:16:52;;;;;;;;;;;;;;;19.89;35.62;99983.44;5081499;28;19928;-54
2022/05/30 08:19:20;;;;;;;;;;;;;;;19.97;35.68;99983.09;5097328;28;19924;-55
2022/05/30 08:21:49;;;;;;;;;;;;;;;19.92;36.01;99982.66;5102534;28;19924;-56
2022/05/30 08:24:16;;;;;;;;;;;;;;;19.83;35.95;99982.97;5091714;28;19940;-56
2022/05/30 08:26:43;;;;;;;;;;;;;;;19.90;35.94;99985.06;5091337;28;20382;-56
2022/05/30 08:29:09;;;;;;;;;;;;;;;19.98;35.55;99989.56;5095656;28;19924;-53
2022/05/30 08:31:37;;;;;;;;;;;;;;;19.90;35.64;99993.53;5086689;28;19932;-56
2022/05/30 08:34:04;;;;;;;;;;;;;;;19.78;35.12;99992.63;5096060;28;20375;-55
2022/05/30 08:36:31;;;;;;;;;;;;;;;20.01;34.80;99991.59;5084110;28;20388;-55
2022/05/30 08:41:50;;;;;;;;;;;;;;;20.14;34.34;100001.44;5095024;28;19928;-55
2022/05/30 08:44:18;;;;;;;;;;;;;;;20.25;34.06;99999.50;5083520;28;19925;-56
2022/05/30 08:46:49;;;;;;;;;;;;;;;20.33;34.23;99999.56;5095340;28;19939;-54
2022/05/30 08:49:19;;;;;;;;;;;;;;;20.52;33.83;99995.66;5086447;28;19925;-56
2022/05/30 08:52:10;;;;;;;;;;;;;;;20.68;34.30;100002.66;5073985;28;19931;-54
2022/05/30 08:54:41;;;;;;;;;;;;;;;20.57;34.20;99998.09;5092659;28;19924;-56
2022/05/30 08:57:13;;;;;;;;;;;;;;;20.32;34.12;99995.09;5074503;28;19948;-56
2022/05/30 08:59:53;;;;;;;;;;;;;;;20.43;34.37;99995.97;5092055;28;19925;-56
2022/05/30 09:02:23;;;;;;;;;;;;;;;20.22;34.39;99993.78;5090499;28;19923;-53
2022/05/30 09:04:53;;;;;;;;;;;;;;;20.23;34.37;99996.25;5087588;28;19936;-53
2022/05/30 09:07:21;;;;;;;;;;;;;;;20.73;34.67;100001.47;5091576;28;19924;-55
2022/05/30 09:09:52;;;;;;;;;;;;;;;22.46;31.59;99986.50;5107248;28;19924;-54
2022/05/30 09:12:22;;;;;;;;;;;;;;;24.63;30.86;99992.66;5111035;28;19930;-53
2022/05/30 09:14:52;;;;;;;;;;;;;;;25.79;26.39;99990.00;5079768;28;19925;-54
2022/05/30 09:17:22;;;;;;;;;;;;;;;27.19;25.09;99981.81;5081963;28;19932;-55
2022/05/30 09:19:49;;;;;;;;;;;;;;;29.19;22.03;99976.03;5099966;28;20252;-52
2022/05/30 09:22:17;;;;;;;;;;;;;;;29.05;22.21;99987.91;5100412;28;19931;-53
2022/05/30 09:25:55;;;;;;;;;;;;;;;29.83;21.22;99987.63;5076406;28;20016;-54
2022/05/30 09:27:34;;;;;;;;;;;;;;;29.61;21.21;99986.66;5079714;28;19925;-55
2022/05/30 09:30:03;;;;;;;;;;;;;;;28.71;20.62;99983.53;5097864;28;19924;-55
2022/05/30 09:32:38;;;;;;;;;;;;;;;28.85;21.20;99983.13;5082529;28;20034;-53
2022/05/30 09:35:22;;;;;;;;;;;;;;;31.32;20.27;99968.44;5105982;28;19927;-53
2022/05/30 09:38:03;;;;;;;;;;;;;;;30.54;18.98;99970.06;5073639;28;19924;-55
2022/05/30 09:40:35;;;;;;;;;;;;;;;29.81;20.90;99977.88;5093514;28;19924;-55
2022/05/30 09:43:06;;;;;;;;;;;;;;;28.99;21.47;99976.19;5091740;28;20304;-52
2022/05/30 09:45:33;;;;;;;;;;;;;;;27.22;22.28;99978.06;5094243;28;19924;-55
2022/05/30 09:48:01;;;;;;;;;;;;;;;27.11;23.02;99978.31;5091551;28;19924;-54
2022/05/30 09:50:28;;;;;;;;;;;;;;;26.54;24.09;99974.47;5099337;28;19924;-53
2022/05/30 09:52:55;;;;;;;;;;;;;;;25.85;24.51;99980.53;5083780;28;19924;-53
2022/05/30 09:55:25;;;;;;;;;;;;;;;24.89;24.49;99985.47;5069829;28;19925;-56
2022/05/30 09:57:53;;;;;;;;;;;;;;;24.44;25.42;99996.88;5070587;28;19931;-56
2022/05/30 10:00:33;;;;;;;;;;;;;;;23.73;26.17;99989.69;5070611;28;20304;-56
2022/05/30 10:03:03;;;;;;;;;;;;;;;23.16;26.72;99991.63;5056914;28;19928;-52
2022/05/30 10:05:31;;;;;;;;;;;;;;;22.61;27.38;99997.84;5057074;28;19925;-56
2022/05/30 10:07:59;;;;;;;;;;;;;;;22.15;28.84;100005.16;5053557;28;20433;-56
2022/05/30 10:10:27;;;;;;;;;;;;;;;21.95;29.13;100001.09;5076477;28;19924;-56
2022/05/30 10:12:56;;;;;;;;;;;;;;;21.57;29.99;100009.94;5078409;28;19932;-53
2022/05/30 10:15:31;;;;;;;;;;;;;;;21.29;30.05;100011.44;5067444;28;19924;-56
2022/05/30 10:18:18;;;;;;;;;;;;;;;21.06;30.39;100006.09;5070479;28;19924;-56
2022/05/30 10:20:50;;;;;;;;;;;;;;;20.94;31.96;100012.09;5064484;28;19929;-53
2022/05/30 10:29:12;;;;;;;;;;;;;;;20.43;30.32;100015.78;5071547;28;19924;-56
2022/05/30 10:31:46;;;;;;;;;;;;;;;20.94;30.50;100005.63;5058160;28;20396;-53
2022/05/30 10:34:33;;;;;;;;;;;;;;;21.44;28.57;100015.19;5065709;28;20296;-56
2022/05/30 10:37:05;;;;;;;;;;;;;;;21.81;28.29;100008.34;5055218;28;19924;-56
2022/05/30 10:39:46;;;;;;;;;;;;;;;22.01;27.74;100000.28;5054360;28;20035;-54
2022/05/30 10:42:18;;;;;;;;;;;;;;;23.07;26.91;100003.41;5068803;28;19924;-55
2022/05/30 10:44:49;;;;;;;;;;;;;;;23.04;26.55;100014.81;5066163;28;19928;-56
2022/05/30 10:47:21;;;;;;;;;;;;;;;23.01;26.66;100013.59;5060154;28;20377;-53
2022/05/30 10:49:52;;;;;;;;;;;;;;;24.15;25.85;100002.00;5064001;28;19925;-55
2022/05/30 10:52:23;;;;;;;;;;;;;;;24.77;24.86;100003.91;5053399;28;20477;-54
2022/05/30 10:54:53;;;;;;;;;;;;;;;24.43;24.02;100007.47;5081367;28;19931;-54
2022/05/30 10:57:24;;;;;;;;;;;;;;;23.74;25.26;100012.03;5087254;28;19924;-54
2022/05/30 10:59:53;;;;;;;;;;;;;;;24.12;25.68;100009.34;5074541;28;20369;-56
2022/05/30 11:02:25;;;;;;;;;;;;;;;24.22;25.72;100004.81;5089102;28;19932;-57
2022/05/30 11:04:56;;;;;;;;;;;;;;;24.22;25.82;100014.16;5090863;28;19924;-54
2022/05/30 11:07:41;;;;;;;;;;;;;;;24.29;25.76;100013.28;5093519;28;19927;-56
2022/05/30 11:10:13;;;;;;;;;;;;;;;24.52;24.96;100004.94;5082661;28;19925;-56
2022/05/30 11:12:42;;;;;;;;;;;;;;;24.54;25.33;100006.56;5076598;28;19924;-56
2022/05/30 11:15:11;;;;;;;;;;;;;;;24.47;25.78;100007.44;5072962;28;19925;-52
2022/05/30 11:17:44;;;;;;;;;;;;;;;23.94;25.69;100009.50;5089407;28;20410;-53
2022/05/30 11:20:14;;;;;;;;;;;;;;;24.17;25.57;100000.38;5079129;28;19923;-54
2022/05/30 11:22:43;;;;;;;;;;;;;;;23.94;25.60;100017.19;5092251;28;20389;-55
2022/05/30 11:25:12;;;;;;;;;;;;;;;23.74;25.71;100012.03;5098187;28;19928;-57
2022/05/30 11:27:39;;;;;;;;;;;;;;;23.59;25.83;100024.72;5079823;28;19931;-54
2022/05/30 11:30:11;;;;;;;;;;;;;;;23.82;24.92;100015.69;5105296;28;19928;-54
2022/05/30 11:32:50;;;;;;;;;;;;;;;23.71;25.39;100019.38;5093325;28;20300;-54
2022/05/30 11:35:26;;;;;;;;;;;;;;;23.45;26.00;100017.88;5099389;28;19924;-54
2022/05/30 11:38:06;;;;;;;;;;;;;;;23.53;26.15;100017.84;5078939;28;19927;-54
2022/05/30 11:40:38;;;;;;;;;;;;;;;23.46;25.68;100033.72;5089560;28;19932;-53
2022/05/30 11:43:18;;;;;;;;;;;;;;;23.21;25.66;100028.13;5084662;28;19928;-55
2022/05/30 11:45:53;;;;;;;;;;;;;;;22.86;25.56;100023.34;5087665;28;19924;-52
2022/05/30 11:48:25;;;;;;;;;;;;;;;22.80;26.35;100030.66;5091715;28;19924;-53
2022/05/30 11:50:56;;;;;;;;;;;;;;;22.74;25.55;100029.44;5070567;28;19932;-55
2022/05/30 11:53:36;;;;;;;;;;;;;;;22.75;25.34;100019.72;5078339;28;19927;-55
2022/05/30 11:56:07;;;;;;;;;;;;;;;22.73;25.86;100033.53;5108926;28;19930;-52
2022/05/30 11:58:47;;;;;;;;;;;;;;;22.66;25.94;100026.63;5077745;28;19931;-53
2022/05/30 12:01:15;;;;;;;;;;;;;;;22.65;25.25;100032.72;5110661;28;19923;-54
2022/05/30 12:04:06;;;;;;;;;;;;;;;22.74;26.24;100029.44;5080136;28;20403;-55
2022/05/30 12:06:43;;;;;;;;;;;;;;;22.67;26.55;100024.59;5103284;28;19928;-51
2022/05/30 12:09:27;;;;;;;;;;;;;;;22.83;25.71;100024.19;5087473;28;19924;-53
2022/05/30 12:12:03;;;;;;;;;;;;;;;23.33;25.34;100029.72;5075089;28;19924;-56
2022/05/30 12:14:47;;;;;;;;;;;;;;;23.82;26.00;100022.16;5081440;28;19931;-55
2022/05/30 12:17:20;;;;;;;;;;;;;;;24.67;25.42;100021.91;5074264;28;19931;-56
2022/05/30 12:25:43;;;;;;;;;;;;;;;25.80;22.95;100028.69;5095483;28;19931;-53
2022/05/30 12:28:25;;;;;;;;;;;;;;;25.89;24.15;100020.44;5082162;28;20399;-52
2022/05/30 12:30:54;;;;;;;;;;;;;;;25.67;23.08;100020.72;5083496;28;19936;-56
2022/05/30 12:33:45;;;;;;;;;;;;;;;25.43;24.14;100021.88;5078224;28;20249;-54
2022/05/30 12:36:37;;;;;;;;;;;;;;;24.90;24.14;100024.94;5107081;28;19924;-56
2022/05/30 12:39:28;;;;;;;;;;;;;;;23.56;25.65;100020.69;5090473;28;19924;-56
2022/05/30 12:41:59;;;;;;;;;;;;;;;23.99;25.49;100023.28;5074223;28;19925;-56
2022/05/30 12:44:46;;;;;;;;;;;;;;;23.83;26.72;100026.66;5078633;28;19928;-56
2022/05/30 12:47:16;;;;;;;;;;;;;;;23.91;26.13;100030.22;5079172;28;19925;-53
2022/05/30 12:49:42;;;;;;;;;;;;;;;24.16;25.32;100024.34;5074779;28;19928;-54
2022/05/30 12:52:17;;;;;;;;;;;;;;;24.36;26.22;100023.78;5114308;28;19923;-56
2022/05/30 12:54:46;;;;;;;;;;;;;;;24.28;25.01;100018.16;5083933;28;19924;-56
2022/05/30 12:57:28;;;;;;;;;;;;;;;24.52;24.92;100021.22;5088991;28;19928;-55
2022/05/30 13:00:19;;;;;;;;;;;;;;;24.13;25.39;100019.53;5089454;28;20384;-56
2022/05/30 13:03:04;;;;;;;;;;;;;;;24.04;25.17;100024.84;5035914;28;20305;-55
2022/05/30 13:05:43;;;;;;;;;;;;;;;23.83;26.20;100031.50;5093322;28;20292;-53
2022/05/30 13:08:25;;;;;;;;;;;;;;;23.71;26.31;100035.63;5088715;28;20406;-56
2022/05/30 13:10:57;;;;;;;;;;;;;;;23.13;26.59;100039.94;5088320;28;20395;-53
2022/05/30 13:13:34;;;;;;;;;;;;;;;22.78;27.25;100033.91;5115162;28;19924;-55
2022/05/30 13:16:04;;;;;;;;;;;;;;;22.86;26.99;100038.34;5091703;28;19923;-55
2022/05/30 13:18:31;;;;;;;;;;;;;;;22.85;27.45;100039.59;5074227;28;19932;-52
2022/05/30 13:21:01;;;;;;;;;;;;;;;22.87;27.13;100042.81;5081706;28;19930;-52
2022/05/30 13:23:29;;;;;;;;;;;;;;;22.78;27.69;100035.94;5088949;28;20289;-51